sensor_id;sensor_type;location;lat;lon;timestamp;P1;durP1;ratioP1;P2;durP2;ratioP2
10389;SDS011;5241;47.830;12.972;2023-06-14T00:02:11;6.10;;;3.63;;
10389;SDS011;5241;47.830;12.972;2023-06-14T00:04:37;4.47;;;3.70;;
10389;SDS011;5241;47.830;12.972;2023-06-14T00:07:04;3.87;;;3.40;;
10389;SDS011;5241;47.830;12.972;2023-06-14T00:09:33;4.47;;;3.50;;
10389;SDS011;5241;47.830;12.972;2023-06-14T00:11:58;5.73;;;3.67;;
10389;SDS011;5241;47.830;12.972;2023-06-14T00:14:24;4.13;;;3.67;;
10389;SDS011;5241;47.830;12.972;2023-06-14T00:16:49;4.23;;;3.40;;
10389;SDS011;5241;47.830;12.972;2023-06-14T00:19:17;4.13;;;3.60;;
10389;SDS011;5241;47.830;12.972;2023-06-14T00:21:43;3.80;;;3.40;;
10389;SDS011;5241;47.830;12.972;2023-06-14T00:24:08;3.87;;;3.47;;
10389;SDS011;5241;47.830;12.972;2023-06-14T00:26:34;4.77;;;3.30;;
10389;SDS011;5241;47.830;12.972;2023-06-14T00:28:59;4.13;;;3.37;;
10389;SDS011;5241;47.830;12.972;2023-06-14T00:31:25;4.30;;;3.57;;
10389;SDS011;5241;47.830;12.972;2023-06-14T00:33:50;5.10;;;3.30;;
10389;SDS011;5241;47.830;12.972;2023-06-14T00:36:16;4.27;;;3.73;;
10389;SDS011;5241;47.830;12.972;2023-06-14T00:38:42;6.87;;;4.20;;
10389;SDS011;5241;47.830;12.972;2023-06-14T00:41:07;4.57;;;3.57;;
10389;SDS011;5241;47.830;12.972;2023-06-14T00:43:33;4.67;;;3.90;;
10389;SDS011;5241;47.830;12.972;2023-06-14T00:45:59;5.37;;;3.30;;
10389;SDS011;5241;47.830;12.972;2023-06-14T00:48:25;4.30;;;3.73;;
10389;SDS011;5241;47.830;12.972;2023-06-14T00:50:51;5.70;;;3.53;;
10389;SDS011;5241;47.830;12.972;2023-06-14T00:53:18;6.67;;;3.50;;
10389;SDS011;5241;47.830;12.972;2023-06-14T00:55:45;5.23;;;3.63;;
10389;SDS011;5241;47.830;12.972;2023-06-14T00:58:11;4.87;;;3.57;;
10389;SDS011;5241;47.830;12.972;2023-06-14T01:00:37;5.03;;;3.67;;
10389;SDS011;5241;47.830;12.972;2023-06-14T01:03:03;4.00;;;3.33;;
10389;SDS011;5241;47.830;12.972;2023-06-14T01:05:28;4.50;;;3.53;;
10389;SDS011;5241;47.830;12.972;2023-06-14T01:13:20;4.90;;;3.37;;
10389;SDS011;5241;47.830;12.972;2023-06-14T01:15:47;5.63;;;3.77;;
10389;SDS011;5241;47.830;12.972;2023-06-14T01:18:13;5.77;;;3.80;;
10389;SDS011;5241;47.830;12.972;2023-06-14T01:20:45;4.40;;;3.93;;
10389;SDS011;5241;47.830;12.972;2023-06-14T01:23:15;4.20;;;3.80;;
10389;SDS011;5241;47.830;12.972;2023-06-14T01:25:42;7.13;;;3.67;;
10389;SDS011;5241;47.830;12.972;2023-06-14T01:28:09;4.37;;;3.97;;
10389;SDS011;5241;47.830;12.972;2023-06-14T01:30:38;5.63;;;3.80;;
10389;SDS011;5241;47.830;12.972;2023-06-14T01:33:10;4.30;;;3.67;;
10389;SDS011;5241;47.830;12.972;2023-06-14T01:35:46;5.97;;;3.70;;
10389;SDS011;5241;47.830;12.972;2023-06-14T01:38:13;5.77;;;3.70;;
10389;SDS011;5241;47.830;12.972;2023-06-14T01:40:40;5.37;;;3.60;;
10389;SDS011;5241;47.830;12.972;2023-06-14T01:43:08;6.00;;;4.00;;
10389;SDS011;5241;47.830;12.972;2023-06-14T01:45:36;4.73;;;4.00;;
10389;SDS011;5241;47.830;12.972;2023-06-14T01:48:02;5.90;;;4.17;;
10389;SDS011;5241;47.830;12.972;2023-06-14T01:50:30;5.53;;;4.00;;
10389;SDS011;5241;47.830;12.972;2023-06-14T01:52:56;8.20;;;4.30;;
10389;SDS011;5241;47.830;12.972;2023-06-14T01:55:22;5.60;;;4.33;;
10389;SDS011;5241;47.830;12.972;2023-06-14T01:57:49;6.37;;;4.37;;
10389;SDS011;5241;47.830;12.972;2023-06-14T02:00:15;6.00;;;4.50;;
10389;SDS011;5241;47.830;12.972;2023-06-14T02:02:43;4.57;;;4.13;;
10389;SDS011;5241;47.830;12.972;2023-06-14T02:05:09;5.97;;;4.17;;
10389;SDS011;5241;47.830;12.972;2023-06-14T02:07:35;5.60;;;4.40;;
10389;SDS011;5241;47.830;12.972;2023-06-14T02:10:01;4.93;;;4.17;;
10389;SDS011;5241;47.830;12.972;2023-06-14T02:12:27;6.70;;;4.20;;
10389;SDS011;5241;47.830;12.972;2023-06-14T02:14:53;4.93;;;4.37;;
10389;SDS011;5241;47.830;12.972;2023-06-14T02:17:19;5.60;;;4.27;;
10389;SDS011;5241;47.830;12.972;2023-06-14T02:19:45;6.17;;;4.27;;
10389;SDS011;5241;47.830;12.972;2023-06-14T02:22:11;5.70;;;4.13;;
10389;SDS011;5241;47.830;12.972;2023-06-14T02:24:36;6.60;;;4.47;;
10389;SDS011;5241;47.830;12.972;2023-06-14T02:27:03;4.93;;;3.83;;
10389;SDS011;5241;47.830;12.972;2023-06-14T02:29:29;4.80;;;4.10;;
10389;SDS011;5241;47.830;12.972;2023-06-14T02:31:54;4.80;;;4.13;;
10389;SDS011;5241;47.830;12.972;2023-06-14T02:34:20;5.87;;;4.77;;
10389;SDS011;5241;47.830;12.972;2023-06-14T02:36:46;5.93;;;4.20;;
10389;SDS011;5241;47.830;12.972;2023-06-14T02:39:13;4.90;;;4.10;;
10389;SDS011;5241;47.830;12.972;2023-06-14T02:41:38;5.70;;;3.97;;
10389;SDS011;5241;47.830;12.972;2023-06-14T02:44:04;5.27;;;3.93;;
10389;SDS011;5241;47.830;12.972;2023-06-14T02:46:31;8.57;;;4.00;;
10389;SDS011;5241;47.830;12.972;2023-06-14T02:48:57;5.87;;;4.20;;
10389;SDS011;5241;47.830;12.972;2023-06-14T02:51:22;6.03;;;4.10;;
10389;SDS011;5241;47.830;12.972;2023-06-14T02:53:48;6.13;;;3.97;;
10389;SDS011;5241;47.830;12.972;2023-06-14T02:56:14;5.43;;;4.30;;
10389;SDS011;5241;47.830;12.972;2023-06-14T02:58:42;4.70;;;3.70;;
10389;SDS011;5241;47.830;12.972;2023-06-14T03:01:08;5.30;;;4.47;;
10389;SDS011;5241;47.830;12.972;2023-06-14T03:03:37;4.60;;;4.10;;
10389;SDS011;5241;47.830;12.972;2023-06-14T03:06:03;9.67;;;4.60;;
10389;SDS011;5241;47.830;12.972;2023-06-14T03:08:30;4.63;;;4.17;;
10389;SDS011;5241;47.830;12.972;2023-06-14T03:11:03;5.70;;;4.50;;
10389;SDS011;5241;47.830;12.972;2023-06-14T03:13:30;5.43;;;4.67;;
10389;SDS011;5241;47.830;12.972;2023-06-14T03:15:57;4.60;;;4.03;;
10389;SDS011;5241;47.830;12.972;2023-06-14T03:18:23;5.07;;;4.07;;
10389;SDS011;5241;47.830;12.972;2023-06-14T03:20:48;8.87;;;4.73;;
10389;SDS011;5241;47.830;12.972;2023-06-14T03:23:15;5.13;;;4.03;;
10389;SDS011;5241;47.830;12.972;2023-06-14T03:25:41;8.00;;;4.90;;
10389;SDS011;5241;47.830;12.972;2023-06-14T03:28:07;8.67;;;4.70;;
10389;SDS011;5241;47.830;12.972;2023-06-14T03:30:33;4.73;;;4.30;;
10389;SDS011;5241;47.830;12.972;2023-06-14T03:32:58;7.20;;;4.30;;
10389;SDS011;5241;47.830;12.972;2023-06-14T03:35:26;7.03;;;4.17;;
10389;SDS011;5241;47.830;12.972;2023-06-14T03:37:52;7.50;;;4.50;;
10389;SDS011;5241;47.830;12.972;2023-06-14T03:40:18;5.20;;;4.60;;
10389;SDS011;5241;47.830;12.972;2023-06-14T03:42:45;5.77;;;4.43;;
10389;SDS011;5241;47.830;12.972;2023-06-14T03:45:10;5.07;;;4.53;;
10389;SDS011;5241;47.830;12.972;2023-06-14T03:47:36;5.33;;;4.63;;
10389;SDS011;5241;47.830;12.972;2023-06-14T03:50:02;5.53;;;4.50;;
10389;SDS011;5241;47.830;12.972;2023-06-14T03:52:29;7.20;;;4.43;;
10389;SDS011;5241;47.830;12.972;2023-06-14T03:54:54;4.97;;;4.43;;
10389;SDS011;5241;47.830;12.972;2023-06-14T03:57:21;6.63;;;5.00;;
10389;SDS011;5241;47.830;12.972;2023-06-14T03:59:48;5.20;;;4.57;;
10389;SDS011;5241;47.830;12.972;2023-06-14T04:02:13;4.80;;;4.30;;
10389;SDS011;5241;47.830;12.972;2023-06-14T04:04:41;5.37;;;4.37;;
10389;SDS011;5241;47.830;12.972;2023-06-14T04:07:09;6.07;;;4.80;;
10389;SDS011;5241;47.830;12.972;2023-06-14T04:09:35;5.43;;;4.67;;
10389;SDS011;5241;47.830;12.972;2023-06-14T04:12:00;4.83;;;4.30;;
10389;SDS011;5241;47.830;12.972;2023-06-14T04:14:26;5.43;;;4.57;;
10389;SDS011;5241;47.830;12.972;2023-06-14T04:16:51;5.17;;;4.57;;
10389;SDS011;5241;47.830;12.972;2023-06-14T04:19:17;6.47;;;4.37;;
10389;SDS011;5241;47.830;12.972;2023-06-14T04:21:42;4.73;;;4.23;;
10389;SDS011;5241;47.830;12.972;2023-06-14T04:24:08;5.77;;;4.27;;
10389;SDS011;5241;47.830;12.972;2023-06-14T04:26:39;6.03;;;4.33;;
10389;SDS011;5241;47.830;12.972;2023-06-14T04:29:05;5.17;;;4.50;;
10389;SDS011;5241;47.830;12.972;2023-06-14T04:31:31;9.60;;;4.70;;
10389;SDS011;5241;47.830;12.972;2023-06-14T04:34:02;8.63;;;4.40;;
10389;SDS011;5241;47.830;12.972;2023-06-14T04:36:31;8.50;;;4.83;;
10389;SDS011;5241;47.830;12.972;2023-06-14T04:38:59;7.70;;;4.13;;
10389;SDS011;5241;47.830;12.972;2023-06-14T04:41:25;6.00;;;3.87;;
10389;SDS011;5241;47.830;12.972;2023-06-14T04:43:55;6.60;;;4.30;;
10389;SDS011;5241;47.830;12.972;2023-06-14T04:46:26;8.70;;;4.40;;
10389;SDS011;5241;47.830;12.972;2023-06-14T04:48:57;5.93;;;4.70;;
10389;SDS011;5241;47.830;12.972;2023-06-14T04:51:26;6.73;;;4.73;;
10389;SDS011;5241;47.830;12.972;2023-06-14T04:53:57;6.27;;;4.30;;
10389;SDS011;5241;47.830;12.972;2023-06-14T04:56:23;7.07;;;5.03;;
10389;SDS011;5241;47.830;12.972;2023-06-14T04:58:50;6.57;;;4.27;;
10389;SDS011;5241;47.830;12.972;2023-06-14T05:01:15;5.87;;;4.60;;
10389;SDS011;5241;47.830;12.972;2023-06-14T05:03:41;5.47;;;4.50;;
10389;SDS011;5241;47.830;12.972;2023-06-14T05:06:09;8.40;;;4.20;;
10389;SDS011;5241;47.830;12.972;2023-06-14T05:08:36;4.57;;;3.80;;
10389;SDS011;5241;47.830;12.972;2023-06-14T05:11:02;7.67;;;4.57;;
10389;SDS011;5241;47.830;12.972;2023-06-14T05:13:27;6.03;;;4.27;;
10389;SDS011;5241;47.830;12.972;2023-06-14T05:15:53;5.83;;;3.70;;
10389;SDS011;5241;47.830;12.972;2023-06-14T05:18:18;5.37;;;4.30;;
10389;SDS011;5241;47.830;12.972;2023-06-14T05:20:44;7.67;;;4.30;;
10389;SDS011;5241;47.830;12.972;2023-06-14T05:23:11;8.30;;;4.00;;
10389;SDS011;5241;47.830;12.972;2023-06-14T05:25:41;10.37;;;4.20;;
10389;SDS011;5241;47.830;12.972;2023-06-14T05:28:10;4.37;;;3.90;;
10389;SDS011;5241;47.830;12.972;2023-06-14T05:30:37;7.20;;;3.77;;
10389;SDS011;5241;47.830;12.972;2023-06-14T05:33:04;5.53;;;4.17;;
10389;SDS011;5241;47.830;12.972;2023-06-14T05:35:30;5.20;;;4.10;;
10389;SDS011;5241;47.830;12.972;2023-06-14T05:37:55;6.40;;;4.27;;
10389;SDS011;5241;47.830;12.972;2023-06-14T05:40:21;5.47;;;3.77;;
10389;SDS011;5241;47.830;12.972;2023-06-14T05:42:47;4.63;;;3.70;;
10389;SDS011;5241;47.830;12.972;2023-06-14T05:45:12;5.43;;;3.70;;
10389;SDS011;5241;47.830;12.972;2023-06-14T05:47:39;4.63;;;3.77;;
10389;SDS011;5241;47.830;12.972;2023-06-14T05:50:05;5.27;;;3.93;;
10389;SDS011;5241;47.830;12.972;2023-06-14T05:52:31;5.20;;;3.37;;
10389;SDS011;5241;47.830;12.972;2023-06-14T05:54:56;5.07;;;4.00;;
10389;SDS011;5241;47.830;12.972;2023-06-14T05:57:22;8.07;;;3.87;;
10389;SDS011;5241;47.830;12.972;2023-06-14T05:59:47;6.60;;;4.10;;
10389;SDS011;5241;47.830;12.972;2023-06-14T06:02:13;8.57;;;4.27;;
10389;SDS011;5241;47.830;12.972;2023-06-14T06:04:39;7.57;;;4.33;;
10389;SDS011;5241;47.830;12.972;2023-06-14T06:07:04;9.27;;;4.30;;
10389;SDS011;5241;47.830;12.972;2023-06-14T06:09:30;6.57;;;3.73;;
10389;SDS011;5241;47.830;12.972;2023-06-14T06:11:56;7.83;;;4.37;;
10389;SDS011;5241;47.830;12.972;2023-06-14T06:14:21;7.93;;;4.57;;
10389;SDS011;5241;47.830;12.972;2023-06-14T06:16:47;6.77;;;4.20;;
10389;SDS011;5241;47.830;12.972;2023-06-14T06:19:12;6.57;;;4.00;;
10389;SDS011;5241;47.830;12.972;2023-06-14T06:21:38;7.07;;;3.87;;
10389;SDS011;5241;47.830;12.972;2023-06-14T06:24:04;4.67;;;3.50;;
10389;SDS011;5241;47.830;12.972;2023-06-14T06:26:30;4.20;;;3.73;;
10389;SDS011;5241;47.830;12.972;2023-06-14T06:28:57;7.17;;;4.00;;
10389;SDS011;5241;47.830;12.972;2023-06-14T06:31:23;6.70;;;3.77;;
10389;SDS011;5241;47.830;12.972;2023-06-14T06:33:49;5.77;;;3.97;;
10389;SDS011;5241;47.830;12.972;2023-06-14T06:36:15;5.80;;;4.30;;
10389;SDS011;5241;47.830;12.972;2023-06-14T06:38:41;5.33;;;3.30;;
10389;SDS011;5241;47.830;12.972;2023-06-14T06:41:07;5.67;;;3.63;;
10389;SDS011;5241;47.830;12.972;2023-06-14T06:43:32;6.17;;;3.97;;
10389;SDS011;5241;47.830;12.972;2023-06-14T06:45:58;5.53;;;4.10;;
10389;SDS011;5241;47.830;12.972;2023-06-14T06:48:23;4.97;;;3.80;;
10389;SDS011;5241;47.830;12.972;2023-06-14T06:50:49;7.13;;;4.27;;
10389;SDS011;5241;47.830;12.972;2023-06-14T06:53:14;5.27;;;4.10;;
10389;SDS011;5241;47.830;12.972;2023-06-14T06:55:40;4.60;;;4.20;;
10389;SDS011;5241;47.830;12.972;2023-06-14T06:58:05;5.67;;;4.50;;
10389;SDS011;5241;47.830;12.972;2023-06-14T07:00:31;4.93;;;4.37;;
10389;SDS011;5241;47.830;12.972;2023-06-14T07:02:57;4.63;;;4.20;;
10389;SDS011;5241;47.830;12.972;2023-06-14T07:05:22;6.20;;;4.00;;
10389;SDS011;5241;47.830;12.972;2023-06-14T07:07:48;7.53;;;3.93;;
10389;SDS011;5241;47.830;12.972;2023-06-14T07:10:14;5.43;;;4.00;;
10389;SDS011;5241;47.830;12.972;2023-06-14T07:12:39;4.77;;;4.17;;
10389;SDS011;5241;47.830;12.972;2023-06-14T07:15:09;4.80;;;3.90;;
10389;SDS011;5241;47.830;12.972;2023-06-14T07:17:34;5.07;;;3.70;;
10389;SDS011;5241;47.830;12.972;2023-06-14T07:20:01;7.83;;;3.77;;
10389;SDS011;5241;47.830;12.972;2023-06-14T07:22:33;6.60;;;4.10;;
10389;SDS011;5241;47.830;12.972;2023-06-14T07:24:58;5.40;;;4.00;;
10389;SDS011;5241;47.830;12.972;2023-06-14T07:27:24;4.03;;;3.63;;
10389;SDS011;5241;47.830;12.972;2023-06-14T07:29:49;4.20;;;3.57;;
10389;SDS011;5241;47.830;12.972;2023-06-14T07:32:15;5.20;;;3.60;;
10389;SDS011;5241;47.830;12.972;2023-06-14T07:34:40;4.67;;;3.60;;
10389;SDS011;5241;47.830;12.972;2023-06-14T07:37:06;4.90;;;4.00;;
10389;SDS011;5241;47.830;12.972;2023-06-14T07:39:32;4.60;;;4.00;;
10389;SDS011;5241;47.830;12.972;2023-06-14T07:41:57;6.07;;;3.80;;
10389;SDS011;5241;47.830;12.972;2023-06-14T07:44:23;4.53;;;4.10;;
10389;SDS011;5241;47.830;12.972;2023-06-14T07:46:48;6.27;;;4.43;;
10389;SDS011;5241;47.830;12.972;2023-06-14T07:49:17;6.23;;;4.57;;
10389;SDS011;5241;47.830;12.972;2023-06-14T07:51:42;5.80;;;4.23;;
10389;SDS011;5241;47.830;12.972;2023-06-14T07:54:09;5.20;;;4.70;;
10389;SDS011;5241;47.830;12.972;2023-06-14T07:56:35;4.73;;;4.30;;
10389;SDS011;5241;47.830;12.972;2023-06-14T07:59:01;6.53;;;4.50;;
10389;SDS011;5241;47.830;12.972;2023-06-14T08:01:26;6.30;;;3.97;;
10389;SDS011;5241;47.830;12.972;2023-06-14T08:03:53;5.43;;;4.13;;
10389;SDS011;5241;47.830;12.972;2023-06-14T08:06:18;6.27;;;4.43;;
10389;SDS011;5241;47.830;12.972;2023-06-14T08:08:44;6.50;;;4.37;;
10389;SDS011;5241;47.830;12.972;2023-06-14T08:11:10;6.73;;;4.00;;
10389;SDS011;5241;47.830;12.972;2023-06-14T08:13:35;6.43;;;3.97;;
10389;SDS011;5241;47.830;12.972;2023-06-14T08:16:01;5.30;;;4.00;;
10389;SDS011;5241;47.830;12.972;2023-06-14T08:18:26;5.70;;;4.47;;
10389;SDS011;5241;47.830;12.972;2023-06-14T08:20:52;5.03;;;4.23;;
10389;SDS011;5241;47.830;12.972;2023-06-14T08:23:19;8.57;;;4.27;;
10389;SDS011;5241;47.830;12.972;2023-06-14T08:25:46;4.23;;;3.83;;
10389;SDS011;5241;47.830;12.972;2023-06-14T08:28:11;5.20;;;4.03;;
10389;SDS011;5241;47.830;12.972;2023-06-14T08:30:37;4.50;;;4.10;;
10389;SDS011;5241;47.830;12.972;2023-06-14T08:33:03;4.57;;;3.90;;
10389;SDS011;5241;47.830;12.972;2023-06-14T08:35:28;4.50;;;3.83;;
10389;SDS011;5241;47.830;12.972;2023-06-14T08:37:54;4.87;;;3.80;;
10389;SDS011;5241;47.830;12.972;2023-06-14T08:40:20;4.90;;;4.40;;
10389;SDS011;5241;47.830;12.972;2023-06-14T08:42:51;3.97;;;3.67;;
10389;SDS011;5241;47.830;12.972;2023-06-14T08:45:18;5.17;;;3.97;;
10389;SDS011;5241;47.830;12.972;2023-06-14T08:47:45;6.63;;;4.17;;
10389;SDS011;5241;47.830;12.972;2023-06-14T08:50:16;4.40;;;4.00;;
10389;SDS011;5241;47.830;12.972;2023-06-14T08:52:48;6.90;;;3.87;;
10389;SDS011;5241;47.830;12.972;2023-06-14T08:55:17;4.10;;;3.70;;
10389;SDS011;5241;47.830;12.972;2023-06-14T08:57:44;4.73;;;3.80;;
10389;SDS011;5241;47.830;12.972;2023-06-14T09:00:13;5.30;;;4.07;;
10389;SDS011;5241;47.830;12.972;2023-06-14T09:02:39;4.07;;;3.67;;
10389;SDS011;5241;47.830;12.972;2023-06-14T09:05:11;4.83;;;3.30;;
10389;SDS011;5241;47.830;12.972;2023-06-14T09:07:43;5.13;;;3.73;;
10389;SDS011;5241;47.830;12.972;2023-06-14T09:10:09;4.67;;;3.30;;
10389;SDS011;5241;47.830;12.972;2023-06-14T09:12:36;5.80;;;3.37;;
10389;SDS011;5241;47.830;12.972;2023-06-14T09:15:03;4.07;;;3.37;;
10389;SDS011;5241;47.830;12.972;2023-06-14T09:17:36;3.93;;;3.53;;
10389;SDS011;5241;47.830;12.972;2023-06-14T09:20:03;8.57;;;3.63;;
10389;SDS011;5241;47.830;12.972;2023-06-14T09:22:38;4.70;;;3.60;;
10389;SDS011;5241;47.830;12.972;2023-06-14T09:25:05;3.77;;;3.47;;
10389;SDS011;5241;47.830;12.972;2023-06-14T09:27:31;4.17;;;3.47;;
10389;SDS011;5241;47.830;12.972;2023-06-14T09:29:57;3.80;;;3.50;;
10389;SDS011;5241;47.830;12.972;2023-06-14T09:32:23;4.00;;;3.70;;
10389;SDS011;5241;47.830;12.972;2023-06-14T09:34:50;3.23;;;3.03;;
10389;SDS011;5241;47.830;12.972;2023-06-14T09:37:31;7.10;;;3.90;;
10389;SDS011;5241;47.830;12.972;2023-06-14T09:39:57;4.83;;;3.67;;
10389;SDS011;5241;47.830;12.972;2023-06-14T09:42:24;3.53;;;3.20;;
10389;SDS011;5241;47.830;12.972;2023-06-14T09:44:53;3.83;;;3.17;;
10389;SDS011;5241;47.830;12.972;2023-06-14T09:47:20;5.53;;;3.57;;
10389;SDS011;5241;47.830;12.972;2023-06-14T09:49:47;3.70;;;3.37;;
10389;SDS011;5241;47.830;12.972;2023-06-14T09:52:14;4.13;;;3.30;;
10389;SDS011;5241;47.830;12.972;2023-06-14T09:54:41;3.37;;;3.00;;
10389;SDS011;5241;47.830;12.972;2023-06-14T09:57:10;3.43;;;3.13;;
10389;SDS011;5241;47.830;12.972;2023-06-14T09:59:36;5.47;;;3.50;;
10389;SDS011;5241;47.830;12.972;2023-06-14T10:05:04;4.33;;;3.30;;
10389;SDS011;5241;47.830;12.972;2023-06-14T10:07:35;7.90;;;3.73;;
10389;SDS011;5241;47.830;12.972;2023-06-14T10:10:05;4.23;;;3.13;;
10389;SDS011;5241;47.830;12.972;2023-06-14T10:12:32;5.90;;;3.20;;
10389;SDS011;5241;47.830;12.972;2023-06-14T10:14:57;3.63;;;3.33;;
10389;SDS011;5241;47.830;12.972;2023-06-14T10:20:19;5.33;;;3.20;;
10389;SDS011;5241;47.830;12.972;2023-06-14T10:22:50;4.00;;;3.30;;
10389;SDS011;5241;47.830;12.972;2023-06-14T10:25:35;3.20;;;3.00;;
10389;SDS011;5241;47.830;12.972;2023-06-14T10:33:56;3.60;;;3.30;;
10389;SDS011;5241;47.830;12.972;2023-06-14T10:41:50;3.90;;;2.87;;
10389;SDS011;5241;47.830;12.972;2023-06-14T10:49:20;4.17;;;3.23;;
10389;SDS011;5241;47.830;12.972;2023-06-14T10:52:08;3.17;;;2.87;;
10389;SDS011;5241;47.830;12.972;2023-06-14T10:54:37;3.23;;;2.93;;
10389;SDS011;5241;47.830;12.972;2023-06-14T10:57:02;4.10;;;2.87;;
10389;SDS011;5241;47.830;12.972;2023-06-14T10:59:32;5.67;;;3.30;;
10389;SDS011;5241;47.830;12.972;2023-06-14T11:02:20;3.20;;;2.90;;
10389;SDS011;5241;47.830;12.972;2023-06-14T11:05:23;4.20;;;3.20;;
10389;SDS011;5241;47.830;12.972;2023-06-14T11:10:45;3.43;;;3.10;;
10389;SDS011;5241;47.830;12.972;2023-06-14T11:13:12;3.80;;;3.13;;
10389;SDS011;5241;47.830;12.972;2023-06-14T11:15:38;4.67;;;3.13;;
10389;SDS011;5241;47.830;12.972;2023-06-14T11:18:08;3.37;;;2.90;;
10389;SDS011;5241;47.830;12.972;2023-06-14T11:20:36;3.67;;;3.00;;
10389;SDS011;5241;47.830;12.972;2023-06-14T11:23:03;3.30;;;3.00;;
10389;SDS011;5241;47.830;12.972;2023-06-14T11:25:29;4.73;;;3.23;;
10389;SDS011;5241;47.830;12.972;2023-06-14T11:27:55;8.00;;;3.20;;
10389;SDS011;5241;47.830;12.972;2023-06-14T11:30:21;5.33;;;3.70;;
10389;SDS011;5241;47.830;12.972;2023-06-14T11:32:47;3.67;;;3.10;;
10389;SDS011;5241;47.830;12.972;2023-06-14T11:35:14;6.77;;;3.57;;
10389;SDS011;5241;47.830;12.972;2023-06-14T11:37:40;3.37;;;3.00;;
10389;SDS011;5241;47.830;12.972;2023-06-14T11:40:09;5.90;;;3.47;;
10389;SDS011;5241;47.830;12.972;2023-06-14T11:42:37;3.87;;;3.37;;
10389;SDS011;5241;47.830;12.972;2023-06-14T11:45:03;3.50;;;2.50;;
10389;SDS011;5241;47.830;12.972;2023-06-14T11:47:32;3.27;;;2.83;;
10389;SDS011;5241;47.830;12.972;2023-06-14T11:49:59;4.70;;;3.20;;
10389;SDS011;5241;47.830;12.972;2023-06-14T11:52:25;8.37;;;3.37;;
10389;SDS011;5241;47.830;12.972;2023-06-14T11:54:51;9.43;;;3.40;;
10389;SDS011;5241;47.830;12.972;2023-06-14T11:57:18;6.23;;;3.20;;
10389;SDS011;5241;47.830;12.972;2023-06-14T11:59:44;3.67;;;3.17;;
10389;SDS011;5241;47.830;12.972;2023-06-14T12:02:16;3.03;;;2.83;;
10389;SDS011;5241;47.830;12.972;2023-06-14T12:04:43;3.05;;;2.85;;
10389;SDS011;5241;47.830;12.972;2023-06-14T12:07:12;4.15;;;2.90;;
10389;SDS011;5241;47.830;12.972;2023-06-14T12:09:42;5.53;;;3.33;;
10389;SDS011;5241;47.830;12.972;2023-06-14T12:12:31;4.80;;;3.53;;
10389;SDS011;5241;47.830;12.972;2023-06-14T12:15:04;4.40;;;3.03;;
10389;SDS011;5241;47.830;12.972;2023-06-14T12:17:32;3.30;;;3.00;;
10389;SDS011;5241;47.830;12.972;2023-06-14T12:20:11;3.40;;;3.10;;
10389;SDS011;5241;47.830;12.972;2023-06-14T12:27:54;4.97;;;3.30;;
10389;SDS011;5241;47.830;12.972;2023-06-14T12:30:20;4.10;;;3.37;;
10389;SDS011;5241;47.830;12.972;2023-06-14T12:32:45;4.57;;;3.53;;
10389;SDS011;5241;47.830;12.972;2023-06-14T12:35:11;5.47;;;3.50;;
10389;SDS011;5241;47.830;12.972;2023-06-14T12:37:36;3.53;;;3.20;;
10389;SDS011;5241;47.830;12.972;2023-06-14T12:40:03;3.60;;;3.30;;
10389;SDS011;5241;47.830;12.972;2023-06-14T12:42:30;4.27;;;3.50;;
10389;SDS011;5241;47.830;12.972;2023-06-14T12:44:56;3.83;;;3.20;;
10389;SDS011;5241;47.830;12.972;2023-06-14T12:47:22;3.83;;;3.53;;
10389;SDS011;5241;47.830;12.972;2023-06-14T12:49:47;4.13;;;3.30;;
10389;SDS011;5241;47.830;12.972;2023-06-14T12:52:13;4.60;;;2.93;;
10389;SDS011;5241;47.830;12.972;2023-06-14T12:54:38;5.43;;;3.30;;
10389;SDS011;5241;47.830;12.972;2023-06-14T12:57:04;3.50;;;3.03;;
10389;SDS011;5241;47.830;12.972;2023-06-14T12:59:31;4.15;;;3.38;;
10389;SDS011;5241;47.830;12.972;2023-06-14T13:01:57;3.07;;;2.77;;
10389;SDS011;5241;47.830;12.972;2023-06-14T13:04:24;3.30;;;2.83;;
10389;SDS011;5241;47.830;12.972;2023-06-14T13:06:50;3.28;;;2.97;;
10389;SDS011;5241;47.830;12.972;2023-06-14T13:09:15;3.30;;;3.00;;
10389;SDS011;5241;47.830;12.972;2023-06-14T13:11:41;3.58;;;3.25;;
10389;SDS011;5241;47.830;12.972;2023-06-14T13:14:10;3.15;;;2.85;;
10389;SDS011;5241;47.830;12.972;2023-06-14T13:16:36;3.38;;;2.88;;
10389;SDS011;5241;47.830;12.972;2023-06-14T13:19:01;3.60;;;3.00;;
10389;SDS011;5241;47.830;12.972;2023-06-14T13:21:27;5.47;;;3.10;;
10389;SDS011;5241;47.830;12.972;2023-06-14T13:23:52;3.40;;;3.15;;
10389;SDS011;5241;47.830;12.972;2023-06-14T13:26:18;3.67;;;3.38;;
10389;SDS011;5241;47.830;12.972;2023-06-14T13:28:44;4.00;;;3.42;;
10389;SDS011;5241;47.830;12.972;2023-06-14T13:31:10;4.15;;;3.50;;
10389;SDS011;5241;47.830;12.972;2023-06-14T13:33:35;3.40;;;3.10;;
10389;SDS011;5241;47.830;12.972;2023-06-14T13:36:01;3.47;;;3.05;;
10389;SDS011;5241;47.830;12.972;2023-06-14T13:38:27;3.42;;;3.10;;
10389;SDS011;5241;47.830;12.972;2023-06-14T13:40:52;3.58;;;3.00;;
10389;SDS011;5241;47.830;12.972;2023-06-14T13:43:18;3.40;;;3.10;;
10389;SDS011;5241;47.830;12.972;2023-06-14T13:45:44;4.03;;;3.10;;
10389;SDS011;5241;47.830;12.972;2023-06-14T13:48:09;4.18;;;3.50;;
10389;SDS011;5241;47.830;12.972;2023-06-14T13:50:35;4.15;;;3.38;;
10389;SDS011;5241;47.830;12.972;2023-06-14T13:53:00;3.38;;;3.08;;
10389;SDS011;5241;47.830;12.972;2023-06-14T13:55:26;3.80;;;3.47;;
10389;SDS011;5241;47.830;12.972;2023-06-14T13:57:52;3.50;;;2.90;;
10389;SDS011;5241;47.830;12.972;2023-06-14T14:00:18;3.53;;;2.73;;
10389;SDS011;5241;47.830;12.972;2023-06-14T14:02:44;5.03;;;3.17;;
10389;SDS011;5241;47.830;12.972;2023-06-14T14:05:10;3.40;;;3.10;;
10389;SDS011;5241;47.830;12.972;2023-06-14T14:07:35;3.92;;;3.55;;
10389;SDS011;5241;47.830;12.972;2023-06-14T14:10:01;3.72;;;2.83;;
10389;SDS011;5241;47.830;12.972;2023-06-14T14:12:27;4.70;;;3.17;;
10389;SDS011;5241;47.830;12.972;2023-06-14T14:14:53;4.07;;;2.80;;
10389;SDS011;5241;47.830;12.972;2023-06-14T14:17:19;4.18;;;2.95;;
10389;SDS011;5241;47.830;12.972;2023-06-14T14:19:45;3.45;;;3.08;;
10389;SDS011;5241;47.830;12.972;2023-06-14T14:22:10;4.63;;;3.40;;
10389;SDS011;5241;47.830;12.972;2023-06-14T14:24:36;3.03;;;2.80;;
10389;SDS011;5241;47.830;12.972;2023-06-14T14:27:02;4.87;;;3.40;;
10389;SDS011;5241;47.830;12.972;2023-06-14T14:29:27;5.27;;;3.40;;
10389;SDS011;5241;47.830;12.972;2023-06-14T14:31:54;4.77;;;3.20;;
10389;SDS011;5241;47.830;12.972;2023-06-14T14:34:21;3.70;;;2.87;;
10389;SDS011;5241;47.830;12.972;2023-06-14T14:36:47;3.60;;;3.30;;
10389;SDS011;5241;47.830;12.972;2023-06-14T14:39:12;3.25;;;2.95;;
10389;SDS011;5241;47.830;12.972;2023-06-14T14:41:38;4.90;;;3.47;;
10389;SDS011;5241;47.830;12.972;2023-06-14T14:44:05;4.45;;;2.95;;
10389;SDS011;5241;47.830;12.972;2023-06-14T14:46:30;3.67;;;3.38;;
10389;SDS011;5241;47.830;12.972;2023-06-14T14:48:56;5.67;;;3.13;;
10389;SDS011;5241;47.830;12.972;2023-06-14T14:51:23;3.60;;;3.30;;
10389;SDS011;5241;47.830;12.972;2023-06-14T14:53:48;3.30;;;3.00;;
10389;SDS011;5241;47.830;12.972;2023-06-14T14:56:14;3.40;;;3.10;;
10389;SDS011;5241;47.830;12.972;2023-06-14T14:58:40;3.47;;;3.17;;
10389;SDS011;5241;47.830;12.972;2023-06-14T15:01:06;4.77;;;3.30;;
10389;SDS011;5241;47.830;12.972;2023-06-14T15:03:32;5.50;;;2.90;;
10389;SDS011;5241;47.830;12.972;2023-06-14T15:05:57;4.27;;;3.13;;
10389;SDS011;5241;47.830;12.972;2023-06-14T15:08:23;4.00;;;3.10;;
10389;SDS011;5241;47.830;12.972;2023-06-14T15:10:48;4.55;;;3.28;;
10389;SDS011;5241;47.830;12.972;2023-06-14T15:13:14;3.03;;;2.83;;
10389;SDS011;5241;47.830;12.972;2023-06-14T15:15:40;3.60;;;3.08;;
10389;SDS011;5241;47.830;12.972;2023-06-14T15:18:05;3.63;;;2.95;;
10389;SDS011;5241;47.830;12.972;2023-06-14T15:20:31;4.32;;;3.10;;
10389;SDS011;5241;47.830;12.972;2023-06-14T15:22:57;2.90;;;2.70;;